sensor_id;sensor_type;location;lat;lon;timestamp;temperature;humidity
48898;DHT22;34713;50.038;20.000;2022-11-27T00:01:21;8.99;63.24
48898;DHT22;34713;50.038;20.000;2022-11-27T00:03:48;8.96;63.21
48898;DHT22;34713;50.038;20.000;2022-11-27T00:06:16;8.96;63.24
48898;DHT22;34713;50.038;20.000;2022-11-27T00:08:44;8.96;63.13
48898;DHT22;34713;50.038;20.000;2022-11-27T00:11:15;8.95;63.01
48898;DHT22;34713;50.038;20.000;2022-11-27T00:13:40;8.93;62.93
48898;DHT22;34713;50.038;20.000;2022-11-27T00:16:07;8.93;62.86
48898;DHT22;34713;50.038;20.000;2022-11-27T00:18:33;8.89;62.85
48898;DHT22;34713;50.038;20.000;2022-11-27T00:21:05;8.88;62.85
48898;DHT22;34713;50.038;20.000;2022-11-27T00:23:33;8.88;62.82
48898;DHT22;34713;50.038;20.000;2022-11-27T00:25:59;8.85;62.82
48898;DHT22;34713;50.038;20.000;2022-11-27T00:28:25;8.83;62.78
48898;DHT22;34713;50.038;20.000;2022-11-27T00:30:50;8.80;62.71
48898;DHT22;34713;50.038;20.000;2022-11-27T00:33:16;8.83;62.68
48898;DHT22;34713;50.038;20.000;2022-11-27T00:35:42;8.80;62.62
48898;DHT22;34713;50.038;20.000;2022-11-27T00:38:08;8.76;62.62
48898;DHT22;34713;50.038;20.000;2022-11-27T00:40:34;8.79;62.66
48898;DHT22;34713;50.038;20.000;2022-11-27T00:43:00;8.76;62.65
48898;DHT22;34713;50.038;20.000;2022-11-27T00:45:27;8.76;62.67
48898;DHT22;34713;50.038;20.000;2022-11-27T00:47:53;8.79;62.68
48898;DHT22;34713;50.038;20.000;2022-11-27T00:50:19;8.75;62.62
48898;DHT22;34713;50.038;20.000;2022-11-27T00:52:44;8.75;62.58
48898;DHT22;34713;50.038;20.000;2022-11-27T00:55:11;8.75;62.50
48898;DHT22;34713;50.038;20.000;2022-11-27T00:57:37;8.71;62.55
48898;DHT22;34713;50.038;20.000;2022-11-27T01:00:05;8.71;62.53
48898;DHT22;34713;50.038;20.000;2022-11-27T01:02:32;8.69;62.58
48898;DHT22;34713;50.038;20.000;2022-11-27T01:04:57;8.68;62.62
48898;DHT22;34713;50.038;20.000;2022-11-27T01:07:25;8.68;62.69
48898;DHT22;34713;50.038;20.000;2022-11-27T01:09:51;8.68;62.79
48898;DHT22;34713;50.038;20.000;2022-11-27T01:12:16;8.65;62.75
48898;DHT22;34713;50.038;20.000;2022-11-27T01:14:42;8.65;62.75
48898;DHT22;34713;50.038;20.000;2022-11-27T01:17:08;8.62;62.76
48898;DHT22;34713;50.038;20.000;2022-11-27T01:19:34;8.63;62.80
48898;DHT22;34713;50.038;20.000;2022-11-27T01:21:59;8.62;62.85
48898;DHT22;34713;50.038;20.000;2022-11-27T01:24:25;8.62;62.87
48898;DHT22;34713;50.038;20.000;2022-11-27T01:26:51;8.61;62.93
48898;DHT22;34713;50.038;20.000;2022-11-27T01:29:17;8.59;62.98
48898;DHT22;34713;50.038;20.000;2022-11-27T01:31:42;8.59;62.99
48898;DHT22;34713;50.038;20.000;2022-11-27T01:34:15;8.61;62.96
48898;DHT22;34713;50.038;20.000;2022-11-27T01:36:41;8.59;62.92
48898;DHT22;34713;50.038;20.000;2022-11-27T01:39:15;8.61;62.84
48898;DHT22;34713;50.038;20.000;2022-11-27T01:41:42;8.58;62.83
48898;DHT22;34713;50.038;20.000;2022-11-27T01:47:04;8.58;62.83
48898;DHT22;34713;50.038;20.000;2022-11-27T01:49:38;8.56;62.83
48898;DHT22;34713;50.038;20.000;2022-11-27T01:54:41;8.53;62.72
48898;DHT22;34713;50.038;20.000;2022-11-27T01:57:15;8.52;62.62
48898;DHT22;34713;50.038;20.000;2022-11-27T01:59:43;8.52;62.52
48898;DHT22;34713;50.038;20.000;2022-11-27T02:02:09;8.48;62.51
48898;DHT22;34713;50.038;20.000;2022-11-27T02:04:35;8.48;62.46
48898;DHT22;34713;50.038;20.000;2022-11-27T02:07:01;8.51;62.39
48898;DHT22;34713;50.038;20.000;2022-11-27T02:09:29;8.51;62.36
48898;DHT22;34713;50.038;20.000;2022-11-27T02:20:35;8.47;62.31
48898;DHT22;34713;50.038;20.000;2022-11-27T02:27:03;8.44;62.29
48898;DHT22;34713;50.038;20.000;2022-11-27T02:29:31;8.41;62.30
48898;DHT22;34713;50.038;20.000;2022-11-27T02:32:11;8.41;62.24
48898;DHT22;34713;50.038;20.000;2022-11-27T02:34:52;8.41;62.24
48898;DHT22;34713;50.038;20.000;2022-11-27T02:37:34;8.41;62.30
48898;DHT22;34713;50.038;20.000;2022-11-27T02:40:11;8.42;62.26
48898;DHT22;34713;50.038;20.000;2022-11-27T02:42:54;8.42;62.36
48898;DHT22;34713;50.038;20.000;2022-11-27T02:45:26;8.38;62.43
48898;DHT22;34713;50.038;20.000;2022-11-27T02:47:53;8.38;62.42
48898;DHT22;34713;50.038;20.000;2022-11-27T02:50:23;8.41;62.46
48898;DHT22;34713;50.038;20.000;2022-11-27T02:52:53;8.38;62.49
48898;DHT22;34713;50.038;20.000;2022-11-27T02:55:23;8.37;62.42
48898;DHT22;34713;50.038;20.000;2022-11-27T02:57:53;8.38;62.37
48898;DHT22;34713;50.038;20.000;2022-11-27T03:00:20;8.37;62.32
48898;DHT22;34713;50.038;20.000;2022-11-27T03:02:50;8.35;62.24
48898;DHT22;34713;50.038;20.000;2022-11-27T03:05:19;8.35;62.25
48898;DHT22;34713;50.038;20.000;2022-11-27T03:07:54;8.34;62.25
48898;DHT22;34713;50.038;20.000;2022-11-27T03:10:32;8.31;62.26
48898;DHT22;34713;50.038;20.000;2022-11-27T03:12:54;8.30;62.27
48898;DHT22;34713;50.038;20.000;2022-11-27T03:15:22;8.31;62.31
48898;DHT22;34713;50.038;20.000;2022-11-27T03:18:02;8.32;62.34
48898;DHT22;34713;50.038;20.000;2022-11-27T03:20:36;8.31;62.34
48898;DHT22;34713;50.038;20.000;2022-11-27T03:23:02;8.31;62.32
48898;DHT22;34713;50.038;20.000;2022-11-27T03:25:28;8.31;62.39
48898;DHT22;34713;50.038;20.000;2022-11-27T03:28:03;8.32;62.45
48898;DHT22;34713;50.038;20.000;2022-11-27T03:30:31;8.30;62.51
48898;DHT22;34713;50.038;20.000;2022-11-27T03:32:57;8.30;62.50
48898;DHT22;34713;50.038;20.000;2022-11-27T03:35:25;8.31;62.44
48898;DHT22;34713;50.038;20.000;2022-11-27T03:37:52;8.32;62.43
48898;DHT22;34713;50.038;20.000;2022-11-27T03:40:19;8.30;62.47
48898;DHT22;34713;50.038;20.000;2022-11-27T03:43:12;8.30;62.53
48898;DHT22;34713;50.038;20.000;2022-11-27T03:48:39;8.28;62.61
48898;DHT22;34713;50.038;20.000;2022-11-27T03:54:06;8.30;62.70
48898;DHT22;34713;50.038;20.000;2022-11-27T03:56:47;8.31;62.69
48898;DHT22;34713;50.038;20.000;2022-11-27T03:59:30;8.27;62.65
48898;DHT22;34713;50.038;20.000;2022-11-27T04:01:57;8.28;62.60
48898;DHT22;34713;50.038;20.000;2022-11-27T04:04:23;8.25;62.56
48898;DHT22;34713;50.038;20.000;2022-11-27T04:06:48;8.24;62.51
48898;DHT22;34713;50.038;20.000;2022-11-27T04:09:14;8.25;62.47
48898;DHT22;34713;50.038;20.000;2022-11-27T04:11:40;8.25;62.37
48898;DHT22;34713;50.038;20.000;2022-11-27T04:14:06;8.24;62.39
48898;DHT22;34713;50.038;20.000;2022-11-27T04:16:31;8.24;62.44
48898;DHT22;34713;50.038;20.000;2022-11-27T04:18:57;8.25;62.37
48898;DHT22;34713;50.038;20.000;2022-11-27T04:21:23;8.24;62.33
48898;DHT22;34713;50.038;20.000;2022-11-27T04:23:49;8.25;62.34
48898;DHT22;34713;50.038;20.000;2022-11-27T04:26:15;8.23;62.29
48898;DHT22;34713;50.038;20.000;2022-11-27T04:28:40;8.21;62.34
48898;DHT22;34713;50.038;20.000;2022-11-27T04:31:06;8.20;62.33
48898;DHT22;34713;50.038;20.000;2022-11-27T04:33:32;8.23;62.34
48898;DHT22;34713;50.038;20.000;2022-11-27T04:35:58;8.21;62.37
48898;DHT22;34713;50.038;20.000;2022-11-27T04:38:24;8.20;62.45
48898;DHT22;34713;50.038;20.000;2022-11-27T04:40:51;8.23;62.48
48898;DHT22;34713;50.038;20.000;2022-11-27T04:43:18;8.23;62.49
48898;DHT22;34713;50.038;20.000;2022-11-27T04:45:44;8.20;62.51
48898;DHT22;34713;50.038;20.000;2022-11-27T04:48:10;8.20;62.58
48898;DHT22;34713;50.038;20.000;2022-11-27T04:50:36;8.20;62.55
48898;DHT22;34713;50.038;20.000;2022-11-27T04:53:02;8.18;62.59
48898;DHT22;34713;50.038;20.000;2022-11-27T04:55:28;8.16;62.61
48898;DHT22;34713;50.038;20.000;2022-11-27T04:57:54;8.16;62.68
48898;DHT22;34713;50.038;20.000;2022-11-27T05:00:20;8.16;62.73
48898;DHT22;34713;50.038;20.000;2022-11-27T05:02:46;8.17;62.80
48898;DHT22;34713;50.038;20.000;2022-11-27T05:05:12;8.14;62.88
48898;DHT22;34713;50.038;20.000;2022-11-27T05:07:38;8.16;62.94
48898;DHT22;34713;50.038;20.000;2022-11-27T05:10:05;8.16;62.97
48898;DHT22;34713;50.038;20.000;2022-11-27T05:12:31;8.14;63.08
48898;DHT22;34713;50.038;20.000;2022-11-27T05:14:57;8.17;63.09
48898;DHT22;34713;50.038;20.000;2022-11-27T05:17:23;8.13;63.04
48898;DHT22;34713;50.038;20.000;2022-11-27T05:19:48;8.14;63.02
48898;DHT22;34713;50.038;20.000;2022-11-27T05:22:14;8.16;63.02
48898;DHT22;34713;50.038;20.000;2022-11-27T05:24:40;8.11;63.04
48898;DHT22;34713;50.038;20.000;2022-11-27T05:27:06;8.11;63.05
48898;DHT22;34713;50.038;20.000;2022-11-27T05:29:31;8.10;63.12
48898;DHT22;34713;50.038;20.000;2022-11-27T05:31:57;8.11;63.22
48898;DHT22;34713;50.038;20.000;2022-11-27T05:34:23;8.10;63.34
48898;DHT22;34713;50.038;20.000;2022-11-27T05:36:48;8.11;63.30
48898;DHT22;34713;50.038;20.000;2022-11-27T05:39:14;8.10;63.23
48898;DHT22;34713;50.038;20.000;2022-11-27T05:41:41;8.10;63.25
48898;DHT22;34713;50.038;20.000;2022-11-27T05:44:13;8.09;63.21
48898;DHT22;34713;50.038;20.000;2022-11-27T05:46:40;8.09;63.24
48898;DHT22;34713;50.038;20.000;2022-11-27T05:49:11;8.10;63.27
48898;DHT22;34713;50.038;20.000;2022-11-27T05:51:37;8.13;63.30
48898;DHT22;34713;50.038;20.000;2022-11-27T05:54:03;8.10;63.27
48898;DHT22;34713;50.038;20.000;2022-11-27T05:56:29;8.09;63.30
48898;DHT22;34713;50.038;20.000;2022-11-27T05:58:55;8.11;63.38
48898;DHT22;34713;50.038;20.000;2022-11-27T06:01:21;8.09;63.36
48898;DHT22;34713;50.038;20.000;2022-11-27T06:03:46;8.09;63.46
48898;DHT22;34713;50.038;20.000;2022-11-27T06:06:16;8.11;63.53
48898;DHT22;34713;50.038;20.000;2022-11-27T06:08:43;8.11;63.63
48898;DHT22;34713;50.038;20.000;2022-11-27T06:11:13;8.11;63.62
48898;DHT22;34713;50.038;20.000;2022-11-27T06:13:40;8.11;63.63
48898;DHT22;34713;50.038;20.000;2022-11-27T06:16:16;8.13;63.56
48898;DHT22;34713;50.038;20.000;2022-11-27T06:18:43;8.10;63.49
48898;DHT22;34713;50.038;20.000;2022-11-27T06:21:12;8.10;63.47
48898;DHT22;34713;50.038;20.000;2022-11-27T06:23:40;8.09;63.42
48898;DHT22;34713;50.038;20.000;2022-11-27T06:26:19;8.10;63.36
48898;DHT22;34713;50.038;20.000;2022-11-27T06:28:43;8.07;63.39
48898;DHT22;34713;50.038;20.000;2022-11-27T06:31:13;8.09;63.42
48898;DHT22;34713;50.038;20.000;2022-11-27T06:33:40;8.06;63.49
48898;DHT22;34713;50.038;20.000;2022-11-27T06:36:06;8.07;63.50
48898;DHT22;34713;50.038;20.000;2022-11-27T06:38:35;8.04;63.55
48898;DHT22;34713;50.038;20.000;2022-11-27T06:41:14;8.04;63.56
48898;DHT22;34713;50.038;20.000;2022-11-27T06:43:34;8.04;63.64
48898;DHT22;34713;50.038;20.000;2022-11-27T06:46:01;8.03;63.61
48898;DHT22;34713;50.038;20.000;2022-11-27T06:48:27;8.04;63.67
48898;DHT22;34713;50.038;20.000;2022-11-27T06:50:53;8.03;63.71
48898;DHT22;34713;50.038;20.000;2022-11-27T06:53:19;7.97;63.81
48898;DHT22;34713;50.038;20.000;2022-11-27T06:55:45;7.99;63.97
48898;DHT22;34713;50.038;20.000;2022-11-27T06:58:11;7.94;64.05
48898;DHT22;34713;50.038;20.000;2022-11-27T07:00:36;7.93;64.18
48898;DHT22;34713;50.038;20.000;2022-11-27T07:03:02;7.88;64.32
48898;DHT22;34713;50.038;20.000;2022-11-27T07:05:28;7.85;64.48
48898;DHT22;34713;50.038;20.000;2022-11-27T07:07:55;7.81;64.63
48898;DHT22;34713;50.038;20.000;2022-11-27T07:10:21;7.76;64.78
48898;DHT22;34713;50.038;20.000;2022-11-27T07:12:47;7.69;64.91
48898;DHT22;34713;50.038;20.000;2022-11-27T07:15:12;7.65;65.10
48898;DHT22;34713;50.038;20.000;2022-11-27T07:17:38;7.67;65.22
48898;DHT22;34713;50.038;20.000;2022-11-27T07:20:07;7.69;65.31
48898;DHT22;34713;50.038;20.000;2022-11-27T07:22:33;7.67;65.36
48898;DHT22;34713;50.038;20.000;2022-11-27T07:24:58;7.72;65.34
48898;DHT22;34713;50.038;20.000;2022-11-27T07:27:25;7.70;65.37
48898;DHT22;34713;50.038;20.000;2022-11-27T07:29:51;7.75;65.46
48898;DHT22;34713;50.038;20.000;2022-11-27T07:32:17;7.79;65.47
48898;DHT22;34713;50.038;20.000;2022-11-27T07:34:42;7.85;65.48
48898;DHT22;34713;50.038;20.000;2022-11-27T07:37:08;7.88;65.46
48898;DHT22;34713;50.038;20.000;2022-11-27T07:39:34;7.88;65.38
48898;DHT22;34713;50.038;20.000;2022-11-27T07:41:59;7.86;65.41
48898;DHT22;34713;50.038;20.000;2022-11-27T07:44:25;7.90;65.44
48898;DHT22;34713;50.038;20.000;2022-11-27T07:46:51;7.93;65.41
48898;DHT22;34713;50.038;20.000;2022-11-27T07:49:17;7.94;65.42
48898;DHT22;34713;50.038;20.000;2022-11-27T07:51:42;7.96;65.39
48898;DHT22;34713;50.038;20.000;2022-11-27T07:54:09;7.97;65.43
48898;DHT22;34713;50.038;20.000;2022-11-27T07:56:35;7.99;65.41
48898;DHT22;34713;50.038;20.000;2022-11-27T07:59:00;8.02;65.42
48898;DHT22;34713;50.038;20.000;2022-11-27T08:01:26;8.04;65.40
48898;DHT22;34713;50.038;20.000;2022-11-27T08:03:52;8.00;65.42
48898;DHT22;34713;50.038;20.000;2022-11-27T08:06:24;8.00;65.51
48898;DHT22;34713;50.038;20.000;2022-11-27T08:08:51;7.97;65.55
48898;DHT22;34713;50.038;20.000;2022-11-27T08:11:29;8.02;65.60
48898;DHT22;34713;50.038;20.000;2022-11-27T08:14:05;8.02;65.60
48898;DHT22;34713;50.038;20.000;2022-11-27T08:16:28;8.00;65.51
48898;DHT22;34713;50.038;20.000;2022-11-27T08:18:54;7.99;65.52
48898;DHT22;34713;50.038;20.000;2022-11-27T08:21:20;7.96;65.58
48898;DHT22;34713;50.038;20.000;2022-11-27T08:23:46;7.97;65.60
48898;DHT22;34713;50.038;20.000;2022-11-27T08:26:13;8.02;65.56
48898;DHT22;34713;50.038;20.000;2022-11-27T08:28:40;8.03;65.53
48898;DHT22;34713;50.038;20.000;2022-11-27T08:31:08;8.03;65.48
48898;DHT22;34713;50.038;20.000;2022-11-27T08:33:34;8.04;65.49
48898;DHT22;34713;50.038;20.000;2022-11-27T08:36:00;8.06;65.43
48898;DHT22;34713;50.038;20.000;2022-11-27T08:38:26;8.07;65.45
48898;DHT22;34713;50.038;20.000;2022-11-27T08:40:56;8.09;65.38
48898;DHT22;34713;50.038;20.000;2022-11-27T08:43:22;8.09;65.35
48898;DHT22;34713;50.038;20.000;2022-11-27T08:45:48;8.11;65.34
48898;DHT22;34713;50.038;20.000;2022-11-27T08:48:15;8.16;65.34
48898;DHT22;34713;50.038;20.000;2022-11-27T08:50:41;8.17;65.30
48898;DHT22;34713;50.038;20.000;2022-11-27T08:53:06;8.21;65.35
48898;DHT22;34713;50.038;20.000;2022-11-27T08:55:32;8.20;65.27
48898;DHT22;34713;50.038;20.000;2022-11-27T08:57:58;8.23;65.29
48898;DHT22;34713;50.038;20.000;2022-11-27T09:00:24;8.25;65.24
48898;DHT22;34713;50.038;20.000;2022-11-27T09:02:50;8.27;65.23
48898;DHT22;34713;50.038;20.000;2022-11-27T09:05:16;8.30;65.13
48898;DHT22;34713;50.038;20.000;2022-11-27T09:07:41;8.30;65.12
48898;DHT22;34713;50.038;20.000;2022-11-27T09:10:08;8.32;65.10
48898;DHT22;34713;50.038;20.000;2022-11-27T09:12:34;8.34;65.00
48898;DHT22;34713;50.038;20.000;2022-11-27T09:15:00;8.37;64.86
48898;DHT22;34713;50.038;20.000;2022-11-27T09:17:26;8.35;64.88
48898;DHT22;34713;50.038;20.000;2022-11-27T09:19:52;8.35;64.89
48898;DHT22;34713;50.038;20.000;2022-11-27T09:22:17;8.38;64.89
48898;DHT22;34713;50.038;20.000;2022-11-27T09:24:43;8.41;64.88
48898;DHT22;34713;50.038;20.000;2022-11-27T09:27:09;8.44;64.83
48898;DHT22;34713;50.038;20.000;2022-11-27T09:29:35;8.44;64.86
48898;DHT22;34713;50.038;20.000;2022-11-27T09:32:01;8.45;64.71
48898;DHT22;34713;50.038;20.000;2022-11-27T09:34:27;8.48;64.75
48898;DHT22;34713;50.038;20.000;2022-11-27T09:36:52;8.52;64.68
48898;DHT22;34713;50.038;20.000;2022-11-27T09:39:18;8.56;64.60
48898;DHT22;34713;50.038;20.000;2022-11-27T09:41:53;8.55;64.52
48898;DHT22;34713;50.038;20.000;2022-11-27T09:44:39;8.56;64.47
48898;DHT22;34713;50.038;20.000;2022-11-27T09:47:37;8.58;64.42
48898;DHT22;34713;50.038;20.000;2022-11-27T09:50:18;8.62;64.46
48898;DHT22;34713;50.038;20.000;2022-11-27T09:52:58;8.66;64.39
48898;DHT22;34713;50.038;20.000;2022-11-27T09:55:41;8.72;64.37
48898;DHT22;34713;50.038;20.000;2022-11-27T10:00:45;8.80;64.31
48898;DHT22;34713;50.038;20.000;2022-11-27T10:03:23;8.82;64.15
48898;DHT22;34713;50.038;20.000;2022-11-27T10:06:39;8.83;64.09
48898;DHT22;34713;50.038;20.000;2022-11-27T10:09:39;8.76;64.06
48898;DHT22;34713;50.038;20.000;2022-11-27T10:15:30;8.71;63.99
48898;DHT22;34713;50.038;20.000;2022-11-27T10:18:27;8.73;64.01
48898;DHT22;34713;50.038;20.000;2022-11-27T10:26:19;8.73;63.99
48898;DHT22;34713;50.038;20.000;2022-11-27T10:32:24;8.75;63.94
48898;DHT22;34713;50.038;20.000;2022-11-27T10:37:00;8.82;63.74
48898;DHT22;34713;50.038;20.000;2022-11-27T10:39:41;8.82;63.70
48898;DHT22;34713;50.038;20.000;2022-11-27T10:42:18;8.88;63.68
48898;DHT22;34713;50.038;20.000;2022-11-27T10:45:02;8.88;63.61
48898;DHT22;34713;50.038;20.000;2022-11-27T10:47:29;8.89;63.51
48898;DHT22;34713;50.038;20.000;2022-11-27T10:49:55;8.90;63.47
48898;DHT22;34713;50.038;20.000;2022-11-27T10:52:22;8.95;63.49
48898;DHT22;34713;50.038;20.000;2022-11-27T10:55:00;8.99;63.52
48898;DHT22;34713;50.038;20.000;2022-11-27T10:57:47;9.02;63.52
48898;DHT22;34713;50.038;20.000;2022-11-27T11:00:23;9.09;63.58
48898;DHT22;34713;50.038;20.000;2022-11-27T11:03:02;9.13;63.47
48898;DHT22;34713;50.038;20.000;2022-11-27T11:05:30;9.14;63.18
48898;DHT22;34713;50.038;20.000;2022-11-27T11:08:18;9.16;63.13
48898;DHT22;34713;50.038;20.000;2022-11-27T11:10:49;9.17;62.98
48898;DHT22;34713;50.038;20.000;2022-11-27T11:13:23;9.20;62.86
48898;DHT22;34713;50.038;20.000;2022-11-27T11:15:54;9.20;62.86
48898;DHT22;34713;50.038;20.000;2022-11-27T11:18:25;9.21;62.86
48898;DHT22;34713;50.038;20.000;2022-11-27T11:20:56;9.26;62.87
48898;DHT22;34713;50.038;20.000;2022-11-27T11:23:35;9.30;62.81
48898;DHT22;34713;50.038;20.000;2022-11-27T11:28:54;9.31;62.63
48898;DHT22;34713;50.038;20.000;2022-11-27T11:31:35;9.33;62.50
48898;DHT22;34713;50.038;20.000;2022-11-27T11:34:19;9.34;62.46
48898;DHT22;34713;50.038;20.000;2022-11-27T11:37:03;9.38;62.43
48898;DHT22;34713;50.038;20.000;2022-11-27T11:39:34;9.40;62.29
48898;DHT22;34713;50.038;20.000;2022-11-27T11:42:08;9.41;62.19
48898;DHT22;34713;50.038;20.000;2022-11-27T11:44:38;9.38;62.11
48898;DHT22;34713;50.038;20.000;2022-11-27T11:47:04;9.41;61.97
48898;DHT22;34713;50.038;20.000;2022-11-27T11:49:32;9.40;61.85
48898;DHT22;34713;50.038;20.000;2022-11-27T12:00:17;9.35;61.79
48898;DHT22;34713;50.038;20.000;2022-11-27T12:08:41;9.33;61.66
48898;DHT22;34713;50.038;20.000;2022-11-27T12:11:21;9.30;61.65
48898;DHT22;34713;50.038;20.000;2022-11-27T12:20:18;9.21;61.23
48898;DHT22;34713;50.038;20.000;2022-11-27T12:23:30;9.17;61.21
48898;DHT22;34713;50.038;20.000;2022-11-27T12:26:05;9.14;61.24
48898;DHT22;34713;50.038;20.000;2022-11-27T12:28:49;9.16;61.22
48898;DHT22;34713;50.038;20.000;2022-11-27T12:40:00;9.19;61.42
48898;DHT22;34713;50.038;20.000;2022-11-27T12:42:36;9.17;61.44
48898;DHT22;34713;50.038;20.000;2022-11-27T12:45:21;9.17;61.31
48898;DHT22;34713;50.038;20.000;2022-11-27T12:47:55;9.16;61.33
48898;DHT22;34713;50.038;20.000;2022-11-27T12:50:41;9.14;61.25
48898;DHT22;34713;50.038;20.000;2022-11-27T12:56:12;9.06;61.51
48898;DHT22;34713;50.038;20.000;2022-11-27T12:58:40;9.02;61.71
48898;DHT22;34713;50.038;20.000;2022-11-27T13:01:18;9.06;61.82
48898;DHT22;34713;50.038;20.000;2022-11-27T13:09:30;9.02;62.08
48898;DHT22;34713;50.038;20.000;2022-11-27T13:11:54;9.03;62.06
48898;DHT22;34713;50.038;20.000;2022-11-27T13:14:24;8.99;62.02
48898;DHT22;34713;50.038;20.000;2022-11-27T13:17:01;8.96;62.19
48898;DHT22;34713;50.038;20.000;2022-11-27T13:19:32;8.89;62.13
48898;DHT22;34713;50.038;20.000;2022-11-27T13:21:59;8.90;62.17
48898;DHT22;34713;50.038;20.000;2022-11-27T13:24:27;8.89;62.21
48898;DHT22;34713;50.038;20.000;2022-11-27T13:27:18;8.86;62.18
48898;DHT22;34713;50.038;20.000;2022-11-27T13:29:54;8.83;62.23
48898;DHT22;34713;50.038;20.000;2022-11-27T13:35:02;8.82;62.35
48898;DHT22;34713;50.038;20.000;2022-11-27T13:40:23;8.82;62.51
48898;DHT22;34713;50.038;20.000;2022-11-27T13:42:54;8.82;62.54
48898;DHT22;34713;50.038;20.000;2022-11-27T13:45:27;8.83;62.59
48898;DHT22;34713;50.038;20.000;2022-11-27T13:47:56;8.85;62.66
48898;DHT22;34713;50.038;20.000;2022-11-27T13:50:23;8.85;62.67
48898;DHT22;34713;50.038;20.000;2022-11-27T13:52:57;8.88;62.70
48898;DHT22;34713;50.038;20.000;2022-11-27T13:55:36;8.83;62.67
48898;DHT22;34713;50.038;20.000;2022-11-27T13:58:04;8.86;62.66
48898;DHT22;34713;50.038;20.000;2022-11-27T14:00:43;8.88;62.67
48898;DHT22;34713;50.038;20.000;2022-11-27T14:03:27;8.88;62.67
48898;DHT22;34713;50.038;20.000;2022-11-27T14:05:55;8.85;62.71
48898;DHT22;34713;50.038;20.000;2022-11-27T14:08:33;8.82;62.74
48898;DHT22;34713;50.038;20.000;2022-11-27T14:11:08;8.86;62.76
48898;DHT22;34713;50.038;20.000;2022-11-27T14:13:47;8.86;62.73
48898;DHT22;34713;50.038;20.000;2022-11-27T14:16:29;8.85;62.78
48898;DHT22;34713;50.038;20.000;2022-11-27T14:19:02;8.83;62.78
48898;DHT22;34713;50.038;20.000;2022-11-27T14:21:38;8.80;62.73
48898;DHT22;34713;50.038;20.000;2022-11-27T14:24:37;8.78;62.82
48898;DHT22;34713;50.038;20.000;2022-11-27T14:27:16;8.79;62.89
48898;DHT22;34713;50.038;20.000;2022-11-27T14:29:43;8.76;62.91
48898;DHT22;34713;50.038;20.000;2022-11-27T14:32:12;8.76;62.92
48898;DHT22;34713;50.038;20.000;2022-11-27T14:34:38;8.75;62.94
48898;DHT22;34713;50.038;20.000;2022-11-27T14:37:04;8.76;62.93
48898;DHT22;34713;50.038;20.000;2022-11-27T14:39:33;8.69;62.97
48898;DHT22;34713;50.038;20.000;2022-11-27T14:42:05;8.69;63.04
48898;DHT22;34713;50.038;20.000;2022-11-27T14:44:33;8.66;63.14
48898;DHT22;34713;50.038;20.000;2022-11-27T14:47:04;8.66;63.18
48898;DHT22;34713;50.038;20.000;2022-11-27T14:49:32;8.62;63.23
48898;DHT22;34713;50.038;20.000;2022-11-27T14:52:03;8.61;63.26
48898;DHT22;34713;50.038;20.000;2022-11-27T14:54:38;8.61;63.28
48898;DHT22;34713;50.038;20.000;2022-11-27T14:57:06;8.61;63.25
48898;DHT22;34713;50.038;20.000;2022-11-27T14:59:33;8.55;63.32
48898;DHT22;34713;50.038;20.000;2022-11-27T15:04:42;8.45;63.53
48898;DHT22;34713;50.038;20.000;2022-11-27T15:09:48;8.38;63.72
48898;DHT22;34713;50.038;20.000;2022-11-27T15:12:29;8.35;63.72
48898;DHT22;34713;50.038;20.000;2022-11-27T15:15:06;8.31;63.79
48898;DHT22;34713;50.038;20.000;2022-11-27T15:17:36;8.28;63.90
48898;DHT22;34713;50.038;20.000;2022-11-27T15:20:20;8.27;63.94
48898;DHT22;34713;50.038;20.000;2022-11-27T15:22:50;8.24;64.05
48898;DHT22;34713;50.038;20.000;2022-11-27T15:25:38;8.23;64.01
48898;DHT22;34713;50.038;20.000;2022-11-27T15:28:26;8.23;64.07
48898;DHT22;34713;50.038;20.000;2022-11-27T15:30:54;8.21;64.08
48898;DHT22;34713;50.038;20.000;2022-11-27T15:33:31;8.18;64.13
48898;DHT22;34713;50.038;20.000;2022-11-27T15:36:18;8.18;64.19
48898;DHT22;34713;50.038;20.000;2022-11-27T15:38:45;8.16;64.22
48898;DHT22;34713;50.038;20.000;2022-11-27T15:41:25;8.16;64.23
48898;DHT22;34713;50.038;20.000;2022-11-27T15:43:51;8.13;64.30
48898;DHT22;34713;50.038;20.000;2022-11-27T15:46:26;8.11;64.33
48898;DHT22;34713;50.038;20.000;2022-11-27T15:48:55;8.07;64.39
48898;DHT22;34713;50.038;20.000;2022-11-27T15:51:21;8.06;64.42
48898;DHT22;34713;50.038;20.000;2022-11-27T15:53:47;8.03;64.44
48898;DHT22;34713;50.038;20.000;2022-11-27T15:56:14;8.02;64.46
48898;DHT22;34713;50.038;20.000;2022-11-27T15:58:41;8.00;64.41
48898;DHT22;34713;50.038;20.000;2022-11-27T16:01:08;8.02;64.39
48898;DHT22;34713;50.038;20.000;2022-11-27T16:03:35;8.03;64.35
48898;DHT22;34713;50.038;20.000;2022-11-27T16:06:05;8.00;64.33
48898;DHT22;34713;50.038;20.000;2022-11-27T16:08:31;8.04;64.32
48898;DHT22;34713;50.038;20.000;2022-11-27T16:11:04;8.03;64.29
48898;DHT22;34713;50.038;20.000;2022-11-27T16:13:30;8.00;64.26
48898;DHT22;34713;50.038;20.000;2022-11-27T16:16:07;7.97;64.24
48898;DHT22;34713;50.038;20.000;2022-11-27T16:18:33;7.94;64.27
48898;DHT22;34713;50.038;20.000;2022-11-27T16:21:06;7.93;64.34
48898;DHT22;34713;50.038;20.000;2022-11-27T16:23:32;7.94;64.37
48898;DHT22;34713;50.038;20.000;2022-11-27T16:25:58;7.92;64.37
48898;DHT22;34713;50.038;20.000;2022-11-27T16:28:26;7.93;64.34
48898;DHT22;34713;50.038;20.000;2022-11-27T16:30:58;7.88;64.38
48898;DHT22;34713;50.038;20.000;2022-11-27T16:33:26;7.88;64.39
48898;DHT22;34713;50.038;20.000;2022-11-27T16:35:52;7.88;64.41
48898;DHT22;34713;50.038;20.000;2022-11-27T16:38:18;7.85;64.47
48898;DHT22;34713;50.038;20.000;2022-11-27T16:40:48;7.79;64.52
48898;DHT22;34713;50.038;20.000;2022-11-27T16:43:14;7.78;64.61
48898;DHT22;34713;50.038;20.000;2022-11-27T16:45:40;7.78;64.66
48898;DHT22;34713;50.038;20.000;2022-11-27T16:48:06;7.78;64.68
48898;DHT22;34713;50.038;20.000;2022-11-27T16:50:32;7.78;64.66
48898;DHT22;34713;50.038;20.000;2022-11-27T16:52:59;7.79;64.65
48898;DHT22;34713;50.038;20.000;2022-11-27T16:55:25;7.81;64.60
48898;DHT22;34713;50.038;20.000;2022-11-27T16:57:50;7.79;64.57
48898;DHT22;34713;50.038;20.000;2022-11-27T17:00:20;7.78;64.63
48898;DHT22;34713;50.038;20.000;2022-11-27T17:02:46;7.76;64.64
48898;DHT22;34713;50.038;20.000;2022-11-27T17:05:11;7.78;64.64
48898;DHT22;34713;50.038;20.000;2022-11-27T17:07:37;7.79;64.56
48898;DHT22;34713;50.038;20.000;2022-11-27T17:10:03;7.79;64.54
48898;DHT22;34713;50.038;20.000;2022-11-27T17:12:31;7.78;64.57
48898;DHT22;34713;50.038;20.000;2022-11-27T17:14:57;7.78;64.53
48898;DHT22;34713;50.038;20.000;2022-11-27T17:17:23;7.78;64.52
48898;DHT22;34713;50.038;20.000;2022-11-27T17:19:49;7.75;64.51